Time;durP1;ratioP1;P1;durP2;ratioP2;P2;SDS_P1;SDS_P2;PMS_P1;PMS_P2;Temp;Humidity;BMP_temperature;BMP_pressure;BME280_temperature;BME280_humidity;BME280_pressure;Samples;Min_cycle;Max_cycle;Signal;HPM_P1;HPM_P2
2022/04/26 03:36:11;;;;;;;40.17;21.40;;;;;;;-145.18;100.00;60484.78;5024992;28;20091;-70
2022/04/26 03:38:41;;;;;;;42.43;21.10;;;;;;;-145.18;100.00;60484.78;5024932;28;20053;-70
2022/04/26 03:41:07;;;;;;;42.13;22.03;;;;;;;-145.18;100.00;60484.78;5027355;28;20035;-70
2022/04/26 03:43:32;;;;;;;38.70;20.40;;;;;;;-145.18;100.00;60484.78;5026569;28;20033;-70
2022/04/26 03:45:58;;;;;;;37.87;21.63;;;;;;;-145.18;100.00;60484.78;5025069;28;20043;-70
2022/04/26 03:48:23;;;;;;;37.47;21.77;;;;;;;-145.18;100.00;60484.78;5022846;28;20060;-70
2022/04/26 03:50:49;;;;;;;38.67;22.43;;;;;;;-145.18;100.00;60484.78;5021820;28;20033;-70
2022/04/26 03:53:14;;;;;;;41.80;21.33;;;;;;;-145.18;100.00;60484.78;5024031;28;20079;-70
2022/04/26 03:55:40;;;;;;;43.97;22.27;;;;;;;-145.18;100.00;60484.78;5027524;28;20049;-70
2022/04/26 03:58:05;;;;;;;43.53;22.90;;;;;;;-145.18;100.00;60484.78;5026725;28;20374;-70
2022/04/26 04:00:30;;;;;;;46.33;24.27;;;;;;;-145.18;100.00;60484.78;5025287;28;21812;-70
2022/04/26 04:02:56;;;;;;;45.87;23.30;;;;;;;-145.18;100.00;60484.78;5026607;28;20036;-70
2022/04/26 04:05:21;;;;;;;42.87;22.90;;;;;;;-145.18;100.00;60484.78;5022905;28;20037;-69
2022/04/26 04:07:47;;;;;;;51.67;25.33;;;;;;;-145.18;100.00;60484.78;5026689;28;20385;-69
2022/04/26 04:10:12;;;;;;;44.23;23.73;;;;;;;-145.18;100.00;60484.78;5023832;28;20057;-69
2022/04/26 04:12:38;;;;;;;43.17;23.60;;;;;;;-145.18;100.00;60484.78;5023291;28;20030;-69
2022/04/26 04:15:03;;;;;;;43.70;22.90;;;;;;;-145.18;100.00;60484.78;5023870;28;20523;-69
2022/04/26 04:17:29;;;;;;;43.70;22.97;;;;;;;-145.18;100.00;60484.78;5007396;28;20036;-70
2022/04/26 04:19:54;;;;;;;47.07;22.23;;;;;;;-145.18;100.00;60484.78;5005608;28;20026;-69
2022/04/26 04:22:20;;;;;;;43.47;23.43;;;;;;;-145.18;100.00;60484.78;5027064;28;20025;-69
2022/04/26 04:24:45;;;;;;;51.23;22.30;;;;;;;-145.18;100.00;60484.78;5027599;28;20037;-69
2022/04/26 04:27:10;;;;;;;47.50;23.67;;;;;;;-145.18;100.00;60484.78;5028503;28;20087;-70
2022/04/26 04:29:36;;;;;;;44.83;23.10;;;;;;;-145.18;100.00;60484.78;5028951;28;20029;-69
2022/04/26 04:32:01;;;;;;;43.77;23.33;;;;;;;-145.18;100.00;60484.78;5027180;28;20029;-69
2022/04/26 04:34:27;;;;;;;46.17;23.70;;;;;;;-145.18;100.00;60484.78;5024301;28;20485;-69
2022/04/26 04:36:52;;;;;;;43.50;24.73;;;;;;;-145.18;100.00;60484.78;5031150;28;20634;-69
2022/04/26 04:39:23;;;;;;;45.53;23.80;;;;;;;-145.18;100.00;60484.78;5025681;28;20132;-69
2022/04/26 04:41:48;;;;;;;53.27;23.83;;;;;;;-145.18;100.00;60484.78;5027622;28;20115;-69
2022/04/26 04:44:14;;;;;;;44.03;24.50;;;;;;;-145.18;100.00;60484.78;5027159;28;20109;-69
2022/04/26 04:46:39;;;;;;;42.30;24.00;;;;;;;-145.18;100.00;60484.78;5030056;28;20105;-69
2022/04/26 04:49:04;;;;;;;40.13;23.77;;;;;;;-145.18;100.00;60484.78;5026409;28;20029;-69
2022/04/26 04:51:30;;;;;;;40.00;21.87;;;;;;;-145.18;100.00;60484.78;5018093;28;20037;-69
2022/04/26 04:53:56;;;;;;;46.17;23.23;;;;;;;-145.18;100.00;60484.78;5026493;28;20481;-68
2022/04/26 04:56:23;;;;;;;39.37;22.07;;;;;;;-145.18;100.00;60484.78;5026878;28;20049;-69
2022/04/26 04:58:48;;;;;;;46.50;21.70;;;;;;;-145.18;100.00;60484.78;5027386;28;20060;-69
2022/04/26 05:01:14;;;;;;;35.67;18.77;;;;;;;-145.18;100.00;60484.78;5023985;28;20045;-69
2022/04/26 05:03:39;;;;;;;36.33;19.20;;;;;;;-145.18;100.00;60484.78;5029708;28;20033;-68
2022/04/26 05:06:05;;;;;;;31.07;18.33;;;;;;;-145.18;100.00;60484.78;5025818;28;20544;-69
2022/04/26 05:08:30;;;;;;;35.50;18.80;;;;;;;-145.18;100.00;60484.78;5029007;28;20098;-69
2022/04/26 05:10:56;;;;;;;30.93;17.27;;;;;;;-145.18;100.00;60484.78;5027472;28;20025;-69
2022/04/26 05:13:21;;;;;;;32.27;16.77;;;;;;;-145.18;100.00;60484.78;5023332;28;20041;-69
2022/04/26 05:15:47;;;;;;;29.30;15.80;;;;;;;-145.18;100.00;60484.78;5022774;28;20033;-69
2022/04/26 05:18:13;;;;;;;30.63;16.17;;;;;;;-145.18;100.00;60484.78;5024654;28;20041;-69
2022/04/26 05:20:39;;;;;;;36.57;16.50;;;;;;;-145.18;100.00;60484.78;5026693;28;20067;-69
2022/04/26 05:25:48;;;;;;;27.10;14.77;;;;;;;-145.18;100.00;60484.78;5024443;28;20036;-69
2022/04/26 05:28:14;;;;;;;28.20;14.17;;;;;;;-145.18;100.00;60484.78;5027616;28;20466;-69
2022/04/26 05:30:39;;;;;;;26.67;14.33;;;;;;;-145.18;100.00;60484.78;5019966;28;20393;-69
2022/04/26 05:33:04;;;;;;;24.93;14.00;;;;;;;-145.18;100.00;60484.78;5024574;28;20374;-69
2022/04/26 05:35:30;;;;;;;31.57;14.33;;;;;;;-145.18;100.00;60484.78;5026485;28;20124;-69
2022/04/26 05:37:55;;;;;;;23.23;13.90;;;;;;;-145.18;100.00;60484.78;5027928;28;20036;-69
2022/04/26 05:40:21;;;;;;;32.33;13.73;;;;;;;-145.18;100.00;60484.78;5022705;28;20077;-69
2022/04/26 05:42:46;;;;;;;29.37;13.73;;;;;;;-145.18;100.00;60484.78;5024088;28;20026;-68
2022/04/26 05:45:12;;;;;;;24.60;12.93;;;;;;;-145.18;100.00;60484.78;5028329;28;20060;-69
2022/04/26 05:47:45;;;;;;;22.67;13.03;;;;;;;-145.18;100.00;60484.78;5028019;28;20032;-69
2022/04/26 05:50:11;;;;;;;20.73;12.47;;;;;;;-145.18;100.00;60484.78;5029697;28;20033;-69
2022/04/26 05:52:37;;;;;;;22.93;12.73;;;;;;;-145.18;100.00;60484.78;5034719;28;20420;-69
2022/04/26 05:55:07;;;;;;;21.47;12.00;;;;;;;-145.18;100.00;60484.78;5028386;28;20163;-69
2022/04/26 05:57:40;;;;;;;19.57;11.50;;;;;;;-145.18;100.00;60484.78;5029405;28;20095;-69
2022/04/26 06:00:07;;;;;;;21.30;12.03;;;;;;;-145.18;100.00;60484.78;5024669;28;20497;-69
2022/04/26 06:02:33;;;;;;;22.83;12.63;;;;;;;-145.18;100.00;60484.78;5028884;28;20037;-69
2022/04/26 06:04:58;;;;;;;25.87;11.67;;;;;;;-145.18;100.00;60484.78;5024810;28;20401;-69
2022/04/26 06:07:24;;;;;;;23.17;11.37;;;;;;;-145.18;100.00;60484.78;5025362;28;20021;-69
2022/04/26 06:09:53;;;;;;;19.47;11.10;;;;;;;-145.18;100.00;60484.78;5029276;28;20032;-69
2022/04/26 06:12:19;;;;;;;20.53;10.60;;;;;;;-145.18;100.00;60484.78;5029416;28;20117;-68
2022/04/26 06:14:44;;;;;;;18.50;10.47;;;;;;;-145.18;100.00;60484.78;5024344;28;20552;-69
2022/04/26 06:17:10;;;;;;;21.20;11.47;;;;;;;-145.18;100.00;60484.78;5026387;28;20057;-69
2022/04/26 06:19:35;;;;;;;17.77;10.50;;;;;;;-145.18;100.00;60484.78;5028295;28;20040;-68
2022/04/26 06:22:01;;;;;;;20.07;11.13;;;;;;;-145.18;100.00;60484.78;5032577;28;20037;-68
2022/04/26 06:24:26;;;;;;;20.43;10.40;;;;;;;-145.18;100.00;60484.78;5034066;28;20021;-68
2022/04/26 06:26:51;;;;;;;21.47;9.93;;;;;;;-145.18;100.00;60484.78;5032165;28;20037;-69
2022/04/26 06:29:17;;;;;;;22.40;10.47;;;;;;;-145.18;100.00;60484.78;5028896;28;20030;-68
2022/04/26 06:31:42;;;;;;;19.43;9.87;;;;;;;-145.18;100.00;60484.78;5028958;28;20029;-68
2022/04/26 06:34:08;;;;;;;16.73;8.40;;;;;;;-145.18;100.00;60484.78;5029126;28;20041;-68
2022/04/26 06:36:33;;;;;;;17.27;9.13;;;;;;;-145.18;100.00;60484.78;5032413;28;21231;-69
2022/04/26 06:38:58;;;;;;;13.10;7.97;;;;;;;-145.18;100.00;60484.78;5032465;28;20048;-69
2022/04/26 06:41:24;;;;;;;13.97;7.13;;;;;;;-145.18;100.00;60484.78;5020881;28;20029;-69
2022/04/26 06:43:49;;;;;;;11.27;7.20;;;;;;;-145.18;100.00;60484.78;5030500;28;20497;-69
2022/04/26 06:46:14;;;;;;;11.95;6.95;;;;;;;-145.18;100.00;60484.78;5029970;28;20066;-70
2022/04/26 06:48:41;;;;;;;11.80;6.72;;;;;;;-145.18;100.00;60484.78;5016114;28;20050;-70
2022/04/26 06:51:07;;;;;;;13.70;7.03;;;;;;;-145.18;100.00;60484.78;5019436;28;20036;-71
2022/04/26 06:53:34;;;;;;;10.25;6.22;;;;;;;-145.18;100.00;60484.78;5033065;28;20026;-71
2022/04/26 06:56:00;;;;;;;10.75;6.15;;;;;;;-145.18;100.00;60484.78;5030651;28;20065;-71
2022/04/26 06:58:25;;;;;;;10.05;5.60;;;;;;;-145.18;100.00;60484.78;5032943;28;20061;-70
2022/04/26 07:00:51;;;;;;;10.75;6.03;;;;;;;-145.18;100.00;60484.78;5024527;28;20040;-71
2022/04/26 07:03:16;;;;;;;10.23;6.10;;;;;;;-145.18;100.00;60484.78;5032604;28;20817;-71
2022/04/26 07:05:41;;;;;;;11.85;5.93;;;;;;;-145.18;100.00;60484.78;5032756;28;20817;-70
2022/04/26 07:08:07;;;;;;;9.18;5.28;;;;;;;-145.18;100.00;60484.78;5015359;28;20030;-70
2022/04/26 07:10:33;;;;;;;8.80;5.65;;;;;;;-145.18;100.00;60484.78;5033292;28;20055;-70
2022/04/26 07:12:58;;;;;;;9.90;6.15;;;;;;;-145.18;100.00;60484.78;5027927;28;20034;-70
2022/04/26 07:15:25;;;;;;;8.48;5.60;;;;;;;-145.18;100.00;60484.78;5013017;28;20109;-71
2022/04/26 07:17:50;;;;;;;8.93;5.60;;;;;;;-145.18;100.00;60484.78;5014002;28;20436;-70
2022/04/26 07:20:15;;;;;;;9.63;5.75;;;;;;;-145.18;100.00;60484.78;5014168;28;20109;-70
2022/04/26 07:22:41;;;;;;;8.00;4.88;;;;;;;-145.18;100.00;60484.78;5033508;28;20029;-68
2022/04/26 07:25:08;;;;;;;14.40;5.25;;;;;;;-145.18;100.00;60484.78;5032665;28;20025;-68
2022/04/26 07:27:34;;;;;;;12.05;5.40;;;;;;;-145.18;100.00;60484.78;5032288;28;20029;-68
2022/04/26 07:29:59;;;;;;;11.90;5.28;;;;;;;-145.18;100.00;60484.78;5028653;28;20022;-68
2022/04/26 07:35:10;;;;;;;10.48;5.90;;;;;;;-145.18;100.00;60484.78;5030378;28;20052;-68
2022/04/26 07:37:37;;;;;;;10.02;6.50;;;;;;;-145.18;100.00;60484.78;5030812;28;20025;-68
2022/04/26 07:40:03;;;;;;;10.50;6.20;;;;;;;-145.18;100.00;60484.78;5032540;28;20503;-68
2022/04/26 07:42:28;;;;;;;11.68;6.50;;;;;;;-145.18;100.00;60484.78;5028384;28;20017;-68
2022/04/26 07:44:54;;;;;;;12.55;6.60;;;;;;;-145.18;100.00;60484.78;5023428;28;20030;-68
2022/04/26 07:47:22;;;;;;;12.15;6.45;;;;;;;-145.18;100.00;60484.78;5017273;28;20156;-68
2022/04/26 07:49:48;;;;;;;11.55;6.72;;;;;;;-145.18;100.00;60484.78;5012665;28;20026;-68
2022/04/26 07:52:15;;;;;;;15.43;7.13;;;;;;;-145.18;100.00;60484.78;5028580;28;20485;-68
2022/04/26 07:54:41;;;;;;;10.65;6.60;;;;;;;-145.18;100.00;60484.78;5024882;28;20144;-68
2022/04/26 07:57:06;;;;;;;11.10;7.55;;;;;;;-145.18;100.00;60484.78;5031681;28;20207;-68
2022/04/26 07:59:32;;;;;;;9.80;6.18;;;;;;;-145.18;100.00;60484.78;5029213;28;20131;-68
2022/04/26 08:01:57;;;;;;;17.60;6.50;;;;;;;-145.18;100.00;60484.78;5031207;28;20539;-68
2022/04/26 08:04:23;;;;;;;8.70;6.07;;;;;;;-145.18;100.00;60484.78;5027902;28;20101;-68
2022/04/26 08:06:48;;;;;;;12.00;6.00;;;;;;;-145.18;100.00;60484.78;5028918;28;20091;-68
2022/04/26 08:09:13;;;;;;;11.43;6.88;;;;;;;-145.18;100.00;60484.78;5029343;28;20037;-67
2022/04/26 08:11:40;;;;;;;12.82;6.10;;;;;;;-145.18;100.00;60484.78;5025188;28;20017;-68
2022/04/26 08:14:05;;;;;;;12.00;6.63;;;;;;;-145.18;100.00;60484.78;5028757;28;20031;-68
2022/04/26 08:16:31;;;;;;;12.25;6.32;;;;;;;-145.18;100.00;60484.78;5022392;28;20116;-68
2022/04/26 08:18:56;;;;;;;11.38;7.00;;;;;;;-145.18;100.00;60484.78;5030052;28;20026;-68
2022/04/26 08:21:22;;;;;;;14.05;6.95;;;;;;;-145.18;100.00;60484.78;5020093;28;20033;-68
2022/04/26 08:29:18;;;;;;;11.30;6.25;;;;;;;-145.18;100.00;60484.78;5026757;28;20040;-68
2022/04/26 08:31:43;;;;;;;11.07;6.18;;;;;;;-145.18;100.00;60484.78;5007177;28;20639;-68
2022/04/26 08:34:09;;;;;;;11.35;6.32;;;;;;;-145.18;100.00;60484.78;5030681;28;20029;-68
2022/04/26 08:36:34;;;;;;;10.80;6.18;;;;;;;-145.18;100.00;60484.78;5030798;28;20029;-68
2022/04/26 08:39:00;;;;;;;11.05;6.25;;;;;;;-145.18;100.00;60484.78;5029106;28;20048;-68
2022/04/26 08:41:26;;;;;;;11.30;5.47;;;;;;;-145.18;100.00;60484.78;5022188;28;20488;-68
2022/04/26 08:43:51;;;;;;;11.02;6.15;;;;;;;-145.18;100.00;60484.78;5031063;28;20481;-68
2022/04/26 08:46:17;;;;;;;11.80;5.28;;;;;;;-145.18;100.00;60484.78;5027418;28;20420;-68
2022/04/26 08:51:27;;;;;;;9.40;4.82;;;;;;;-145.18;100.00;60484.78;5030061;28;20160;-68
2022/04/26 08:53:53;;;;;;;8.98;4.25;;;;;;;-145.18;100.00;60484.78;5013318;28;20030;-68
2022/04/26 08:56:20;;;;;;;9.38;4.80;;;;;;;-145.18;100.00;60484.78;5030064;28;20386;-68
2022/04/26 08:58:46;;;;;;;9.13;4.68;;;;;;;-145.18;100.00;60484.78;5028043;28;20025;-68
2022/04/26 09:01:18;;;;;;;7.10;4.70;;;;;;;-145.18;100.00;60484.78;5021953;28;20035;-68
2022/04/26 09:04:07;;;;;;;11.48;4.65;;;;;;;-145.18;100.00;60484.78;5031006;28;20100;-68
2022/04/26 09:06:33;;;;;;;10.93;4.95;;;;;;;-145.18;100.00;60484.78;5030698;28;20029;-68
2022/04/26 09:09:09;;;;;;;9.90;5.50;;;;;;;-145.18;100.00;60484.78;5030400;28;20036;-68
2022/04/26 09:11:34;;;;;;;9.02;5.30;;;;;;;-145.18;100.00;60484.78;5027478;28;20056;-68
2022/04/26 09:14:02;;;;;;;9.32;5.00;;;;;;;-145.18;100.00;60484.78;5028434;28;20065;-67
2022/04/26 09:16:28;;;;;;;10.75;5.20;;;;;;;-145.18;100.00;60484.78;5021763;28;20398;-68
2022/04/26 09:19:05;;;;;;;10.93;5.60;;;;;;;-145.18;100.00;60484.78;5030283;28;20024;-68
2022/04/26 09:21:32;;;;;;;8.02;4.88;;;;;;;-145.18;100.00;60484.78;5024448;28;20026;-68
2022/04/26 09:24:06;;;;;;;10.93;5.35;;;;;;;-145.18;100.00;60484.78;5029987;28;20437;-68
2022/04/26 09:26:37;;;;;;;11.68;4.90;;;;;;;-145.18;100.00;60484.78;5029871;28;20080;-68
2022/04/26 09:29:03;;;;;;;;;;;;;;;-145.18;100.00;60484.78;5027924;28;20026;-69
2022/04/26 09:31:31;;;;;;;9.40;5.15;;;;;;;-145.18;100.00;60484.78;5020214;28;19913;-68
2022/04/26 09:33:59;;;;;;;10.07;5.15;;;;;;;-145.18;100.00;60484.78;5029866;28;20476;-68
2022/04/26 09:36:28;;;;;;;10.20;5.20;;;;;;;-145.18;100.00;60484.78;5023344;28;20109;-68
2022/04/26 09:38:59;;;;;;;8.83;5.60;;;;;;;-145.18;100.00;60484.78;5008980;28;20071;-68
2022/04/26 09:41:29;;;;;;;8.90;5.72;;;;;;;-145.18;100.00;60484.78;5029396;28;20060;-68
2022/04/26 09:43:57;;;;;;;8.95;5.30;;;;;;;-145.18;100.00;60484.78;5028512;28;20079;-68
2022/04/26 09:46:24;;;;;;;7.03;5.07;;;;;;;-145.18;100.00;60484.78;5021468;28;20030;-68
2022/04/26 09:48:51;;;;;;;8.52;5.07;;;;;;;-145.18;100.00;60484.78;5022450;28;20176;-68
2022/04/26 09:51:17;;;;;;;7.85;4.90;;;;;;;-145.18;100.00;60484.78;5029940;28;20029;-68
2022/04/26 09:53:42;;;;;;;10.20;5.20;;;;;;;-145.18;100.00;60484.78;5029440;28;20032;-68
2022/04/26 09:56:12;;;;;;;9.55;4.47;;;;;;;-145.18;100.00;60484.78;5020172;28;20029;-68
2022/04/26 09:58:38;;;;;;;7.22;4.80;;;;;;;-145.18;100.00;60484.78;5018723;28;20033;-68
2022/04/26 10:01:06;;;;;;;9.00;4.60;;;;;;;-145.18;100.00;60484.78;5021647;28;20034;-68
2022/04/26 10:03:36;;;;;;;8.27;4.72;;;;;;;-145.18;100.00;60484.78;5028897;28;20060;-68
2022/04/26 10:06:05;;;;;;;7.75;4.60;;;;;;;-145.18;100.00;60484.78;5013624;28;20037;-68
2022/04/26 10:08:34;;;;;;;8.02;4.30;;;;;;;-145.18;100.00;60484.78;5027675;28;20033;-68
2022/04/26 10:11:01;;;;;;;8.52;4.55;;;;;;;-145.18;100.00;60484.78;5021184;28;20036;-68
2022/04/26 10:13:39;;;;;;;7.07;4.63;;;;;;;-145.18;100.00;60484.78;5028830;28;20022;-68
2022/04/26 10:16:12;;;;;;;8.55;4.65;;;;;;;-145.18;100.00;60484.78;5020342;28;20033;-68
2022/04/26 10:18:43;;;;;;;8.50;4.63;;;;;;;-145.18;100.00;60484.78;5029982;28;20029;-69
2022/04/26 10:21:08;;;;;;;;;;;;;;;-145.18;100.00;60484.78;5026773;28;20029;-68
2022/04/26 10:23:55;;;;;;;6.80;4.40;;;;;;;-145.18;100.00;60484.78;5026057;28;20357;-69
2022/04/26 10:26:22;;;;;;;9.90;4.70;;;;;;;-145.18;100.00;60484.78;4997123;28;20520;-68
2022/04/26 10:28:55;;;;;;;8.02;4.50;;;;;;;-145.18;100.00;60484.78;5030234;28;20481;-68
2022/04/26 10:31:46;;;;;;;6.90;4.60;;;;;;;-145.18;100.00;60484.78;5011326;28;20057;-68
2022/04/26 10:34:14;;;;;;;9.00;4.75;;;;;;;-145.18;100.00;60484.78;5008220;28;20034;-68
2022/04/26 10:36:40;;;;;;;10.60;4.60;;;;;;;-145.18;100.00;60484.78;5027725;28;20043;-68
2022/04/26 10:39:05;;;;;;;7.85;4.50;;;;;;;-145.18;100.00;60484.78;5031214;28;20041;-68
2022/04/26 10:41:35;;;;;;;8.48;4.20;;;;;;;-145.18;100.00;60484.78;5021867;28;20037;-68
2022/04/26 10:44:16;;;;;;;6.53;4.30;;;;;;;-145.18;100.00;60484.78;5032407;28;20029;-68
2022/04/26 10:47:00;;;;;;;7.88;4.18;;;;;;;-145.18;100.00;60484.78;5017717;28;20061;-68
2022/04/26 10:49:40;;;;;;;6.50;4.72;;;;;;;-145.18;100.00;60484.78;5014093;28;20026;-68
2022/04/26 10:52:10;;;;;;;8.23;4.93;;;;;;;-145.18;100.00;60484.78;5032230;28;20051;-68
2022/04/26 10:57:21;;;;;;;7.57;4.57;;;;;;;-145.18;100.00;60484.78;5033478;28;20087;-68
2022/04/26 10:59:56;;;;;;;8.90;4.63;;;;;;;-145.18;100.00;60484.78;5026222;28;20026;-68
2022/04/26 11:02:25;;;;;;;11.25;5.15;;;;;;;-145.18;100.00;60484.78;5030329;28;20029;-68
2022/04/26 11:05:03;;;;;;;25.50;6.25;;;;;;;-145.18;100.00;60484.78;5025114;28;20030;-68
2022/04/26 11:07:29;;;;;;;7.65;4.70;;;;;;;-145.18;100.00;60484.78;5013836;28;20026;-68
2022/04/26 11:09:57;;;;;;;11.63;5.30;;;;;;;-145.18;100.00;60484.78;5032507;28;20133;-68
2022/04/26 11:12:24;;;;;;;8.98;4.95;;;;;;;-145.18;100.00;60484.78;5031950;28;20075;-68
2022/04/26 11:14:52;;;;;;;8.70;5.53;;;;;;;-145.18;100.00;60484.78;5025685;28;20030;-68
2022/04/26 11:17:18;;;;;;;8.07;5.50;;;;;;;-145.18;100.00;60484.78;5022706;28;20080;-68
2022/04/26 11:19:49;;;;;;;10.55;5.95;;;;;;;-145.18;100.00;60484.78;5024776;28;20033;-68
2022/04/26 11:22:15;;;;;;;8.05;5.18;;;;;;;-145.18;100.00;60484.78;5027586;28;20045;-68
2022/04/26 11:30:33;;;;;;;9.90;5.40;;;;;;;-145.18;100.00;60484.78;5031666;28;20060;-68
2022/04/26 11:33:01;;;;;;;8.52;5.72;;;;;;;-145.18;100.00;60484.78;5032846;28;20113;-68
2022/04/26 11:35:28;;;;;;;11.13;5.63;;;;;;;-145.18;100.00;60484.78;5014485;28;20037;-67
2022/04/26 11:37:55;;;;;;;7.57;5.82;;;;;;;-145.18;100.00;60484.78;5032188;28;20481;-68
2022/04/26 11:40:25;;;;;;;10.10;6.22;;;;;;;-145.18;100.00;60484.78;5028706;28;20036;-68
2022/04/26 11:42:51;;;;;;;8.63;6.05;;;;;;;-145.18;100.00;60484.78;5030350;28;20044;-68
2022/04/26 11:45:17;;;;;;;7.90;5.80;;;;;;;-145.18;100.00;60484.78;5024443;28;20021;-68
2022/04/26 11:47:48;;;;;;;12.07;6.20;;;;;;;-145.18;100.00;60484.78;5004534;28;20026;-68
2022/04/26 11:50:20;;;;;;;10.63;5.50;;;;;;;-145.18;100.00;60484.78;5022673;28;20025;-68
2022/04/26 11:52:47;;;;;;;10.15;5.68;;;;;;;-145.18;100.00;60484.78;5032587;28;20025;-68
2022/04/26 11:55:23;;;;;;;10.45;5.63;;;;;;;-145.18;100.00;60484.78;5030528;28;20832;-67
2022/04/26 11:57:49;;;;;;;9.40;5.78;;;;;;;-145.18;100.00;60484.78;5029856;28;20029;-68
2022/04/26 12:00:17;;;;;;;11.55;5.97;;;;;;;-145.18;100.00;60484.78;5029274;28;20033;-68
2022/04/26 12:02:45;;;;;;;7.75;5.72;;;;;;;-145.18;100.00;60484.78;5027760;28;20025;-68
2022/04/26 12:05:11;;;;;;;8.65;5.55;;;;;;;-145.18;100.00;60484.78;5026029;28;20033;-68
2022/04/26 12:07:37;;;;;;;6.95;4.78;;;;;;;-145.18;100.00;60484.78;5031079;28;20036;-68
2022/04/26 12:10:03;;;;;;;8.52;4.93;;;;;;;-145.18;100.00;60484.78;5023902;28;20038;-68
2022/04/26 12:12:29;;;;;;;10.77;5.32;;;;;;;-145.18;100.00;60484.78;5031401;28;20084;-68
2022/04/26 12:14:55;;;;;;;8.32;5.20;;;;;;;-145.18;100.00;60484.78;5027594;28;20025;-68
2022/04/26 12:17:29;;;;;;;17.77;5.85;;;;;;;-145.18;100.00;60484.78;5029059;28;20041;-67
2022/04/26 12:19:55;;;;;;;9.55;5.35;;;;;;;-145.18;100.00;60484.78;5023678;28;20037;-68
2022/04/26 12:22:25;;;;;;;8.07;5.22;;;;;;;-145.18;100.00;60484.78;5031086;28;20148;-68
2022/04/26 12:24:52;;;;;;;8.68;5.38;;;;;;;-145.18;100.00;60484.78;5005720;28;20574;-68
2022/04/26 12:27:26;;;;;;;8.73;5.20;;;;;;;-145.18;100.00;60484.78;5030328;28;20424;-68
2022/04/26 12:29:52;;;;;;;10.55;5.38;;;;;;;-145.18;100.00;60484.78;5022988;28;20157;-68
2022/04/26 12:32:20;;;;;;;9.35;5.00;;;;;;;-145.18;100.00;60484.78;5031173;28;20049;-68
2022/04/26 12:34:50;;;;;;;7.70;4.78;;;;;;;-145.18;100.00;60484.78;5027900;28;20040;-68
2022/04/26 12:37:17;;;;;;;8.15;4.95;;;;;;;-145.18;100.00;60484.78;5023541;28;20029;-68
2022/04/26 12:39:48;;;;;;;7.45;5.25;;;;;;;-145.18;100.00;60484.78;5023459;28;20033;-68
2022/04/26 12:42:28;;;;;;;10.40;5.88;;;;;;;-145.18;100.00;60484.78;5027050;28;20549;-68
2022/04/26 12:44:58;;;;;;;11.10;6.05;;;;;;;-145.18;100.00;60484.78;5024536;28;20057;-67
2022/04/26 12:53:00;;;;;;;10.20;6.28;;;;;;;-145.18;100.00;60484.78;5021969;28;20041;-68
2022/04/26 12:55:40;;;;;;;10.65;6.40;;;;;;;-145.18;100.00;60484.78;5021962;28;20529;-67
2022/04/26 12:58:13;;;;;;;13.55;7.18;;;;;;;-145.18;100.00;60484.78;5029251;28;20033;-67
2022/04/26 13:00:41;;;;;;;10.10;6.85;;;;;;;-145.18;100.00;60484.78;5020911;28;20033;-67
2022/04/26 13:03:08;;;;;;;11.63;6.78;;;;;;;-145.18;100.00;60484.78;5018806;28;20017;-67
2022/04/26 13:05:39;;;;;;;11.57;7.28;;;;;;;-145.18;100.00;60484.78;5017309;28;20073;-67
2022/04/26 13:08:04;;;;;;;12.23;6.85;;;;;;;-145.18;100.00;60484.78;5024307;28;20045;-67
2022/04/26 13:10:30;;;;;;;21.90;7.57;;;;;;;-145.18;100.00;60484.78;5023087;28;20044;-67
2022/04/26 13:12:55;;;;;;;11.50;6.95;;;;;;;-145.18;100.00;60484.78;5028767;28;20033;-68
2022/04/26 13:15:23;;;;;;;14.32;7.20;;;;;;;-145.18;100.00;60484.78;5020940;28;20033;-68
2022/04/26 13:17:48;;;;;;;9.25;6.38;;;;;;;-145.18;100.00;60484.78;5030964;28;20506;-68
2022/04/26 13:20:14;;;;;;;12.05;6.78;;;;;;;-145.18;100.00;60484.78;5022604;28;20302;-68
2022/04/26 13:22:39;;;;;;;12.35;7.30;;;;;;;-145.18;100.00;60484.78;5031068;28;20113;-69
2022/04/26 13:25:06;;;;;;;10.85;6.38;;;;;;;-145.18;100.00;60484.78;5006013;28;20018;-69
2022/04/26 13:27:33;;;;;;;11.48;6.55;;;;;;;-145.18;100.00;60484.78;5030229;28;20369;-69
2022/04/26 13:29:59;;;;;;;9.80;6.35;;;;;;;-145.18;100.00;60484.78;5020985;28;20033;-69
2022/04/26 13:32:25;;;;;;;8.50;6.10;;;;;;;-145.18;100.00;60484.78;5030051;28;20393;-69
2022/04/26 13:34:52;;;;;;;10.85;6.57;;;;;;;-145.18;100.00;60484.78;5023388;28;20048;-69
2022/04/26 13:37:19;;;;;;;11.27;6.20;;;;;;;-145.18;100.00;60484.78;5030958;28;20489;-69
2022/04/26 13:39:45;;;;;;;10.93;6.45;;;;;;;-145.18;100.00;60484.78;5023521;28;20105;-69
2022/04/26 13:42:12;;;;;;;8.95;5.70;;;;;;;-145.18;100.00;60484.78;5028067;28;20083;-69
2022/04/26 13:44:37;;;;;;;11.57;6.50;;;;;;;-145.18;100.00;60484.78;5024271;28;20037;-68
2022/04/26 13:47:05;;;;;;;10.05;6.18;;;;;;;-145.18;100.00;60484.78;5026374;28;20036;-69
2022/04/26 13:49:31;;;;;;;9.82;6.70;;;;;;;-145.18;100.00;60484.78;5025457;28;20030;-69
2022/04/26 13:51:57;;;;;;;9.40;6.47;;;;;;;-145.18;100.00;60484.78;5028009;28;20524;-69
2022/04/26 13:54:27;;;;;;;10.63;6.57;;;;;;;-145.18;100.00;60484.78;5030601;28;20121;-68
2022/04/26 13:56:53;;;;;;;9.50;6.10;;;;;;;-145.18;100.00;60484.78;5027889;28;20033;-68
2022/04/26 13:59:20;;;;;;;10.10;6.45;;;;;;;-145.18;100.00;60484.78;5026908;28;20069;-68
2022/04/26 14:01:45;;;;;;;10.15;7.03;;;;;;;-145.18;100.00;60484.78;5027165;28;20041;-68
2022/04/26 14:04:11;;;;;;;9.32;6.57;;;;;;;-145.18;100.00;60484.78;5018946;28;20390;-69
2022/04/26 14:06:36;;;;;;;11.10;6.78;;;;;;;-145.18;100.00;60484.78;5024154;28;20075;-69
2022/04/26 14:09:02;;;;;;;10.35;6.68;;;;;;;-145.18;100.00;60484.78;5029384;28;20363;-68
2022/04/26 14:11:27;;;;;;;14.05;7.10;;;;;;;-145.18;100.00;60484.78;5031969;28;20061;-68
2022/04/26 14:22:04;;;;;;;13.45;6.68;;;;;;;-145.18;100.00;60484.78;5032702;28;20040;-68
2022/04/26 14:24:29;;;;;;;10.20;7.13;;;;;;;-145.18;100.00;60484.78;5028829;28;20470;-68
2022/04/26 14:26:55;;;;;;;10.32;7.90;;;;;;;-145.18;100.00;60484.78;5024498;28;20112;-68
2022/04/26 14:29:20;;;;;;;11.98;7.60;;;;;;;-145.18;100.00;60484.78;5029434;28;20313;-68
2022/04/26 14:31:48;;;;;;;12.38;7.50;;;;;;;-145.18;100.00;60484.78;5024166;28;20021;-68
2022/04/26 14:34:14;;;;;;;10.82;7.03;;;;;;;-145.18;100.00;60484.78;5032275;28;21093;-69
2022/04/26 14:36:40;;;;;;;8.55;6.38;;;;;;;-145.18;100.00;60484.78;5033839;28;20056;-69
2022/04/26 14:39:05;;;;;;;10.93;6.78;;;;;;;-145.18;100.00;60484.78;5028966;28;20519;-69
2022/04/26 14:41:31;;;;;;;10.77;6.15;;;;;;;-145.18;100.00;60484.78;5016674;28;20033;-69
2022/04/26 14:43:56;;;;;;;9.57;5.97;;;;;;;-145.18;100.00;60484.78;5029052;28;20025;-69
2022/04/26 14:46:21;;;;;;;10.07;5.90;;;;;;;-145.18;100.00;60484.78;5021793;28;20033;-68
2022/04/26 14:48:47;;;;;;;11.65;6.28;;;;;;;-145.18;100.00;60484.78;5016550;28;20025;-68
2022/04/26 14:51:13;;;;;;;12.27;6.20;;;;;;;-145.18;100.00;60484.78;5025433;28;20045;-69
2022/04/26 14:53:39;;;;;;;11.35;6.00;;;;;;;-145.18;100.00;60484.78;5021440;28;20377;-69
2022/04/26 14:56:06;;;;;;;11.85;5.80;;;;;;;-145.18;100.00;60484.78;5009322;28;20043;-69
2022/04/26 14:58:33;;;;;;;9.55;6.13;;;;;;;-145.18;100.00;60484.78;5010478;28;20030;-69
2022/04/26 15:00:59;;;;;;;10.00;6.70;;;;;;;-145.18;100.00;60484.78;5027484;28;20033;-68
2022/04/26 15:03:30;;;;;;;14.68;6.82;;;;;;;-145.18;100.00;60484.78;5035101;28;20022;-69
2022/04/26 15:05:58;;;;;;;11.80;6.30;;;;;;;-145.18;100.00;60484.78;5023311;28;20029;-68
2022/04/26 15:11:07;;;;;;;11.30;6.07;;;;;;;-145.18;100.00;60484.78;5022586;28;20052;-68
2022/04/26 15:19:00;;;;;;;11.88;6.32;;;;;;;-145.18;100.00;60484.78;5027130;28;20055;-68
2022/04/26 15:21:26;;;;;;;9.85;5.90;;;;;;;-145.18;100.00;60484.78;5030977;28;20033;-68